Time;durP1;ratioP1;P1;durP2;ratioP2;P2;SDS_P1;SDS_P2;PMS_P1;PMS_P2;Temp;Humidity;BMP_temperature;BMP_pressure;BME280_temperature;BME280_humidity;BME280_pressure;Samples;Min_cycle;Max_cycle;Signal;HPM_P1;HPM_P2
2022/09/19 00:00:40;;;;;;;3.60;0.60;;;;;;;18.17;40.12;94078.34;4972665;28;20030;-90
2022/09/19 00:03:06;;;;;;;3.63;0.88;;;;;;;17.95;41.04;94082.84;4978203;28;20091;-90
2022/09/19 00:05:32;;;;;;;1.92;0.68;;;;;;;17.91;42.27;94071.31;4978226;28;20045;-90
2022/09/19 00:07:57;;;;;;;2.28;0.70;;;;;;;18.22;42.91;94078.19;4962235;28;20022;-89
2022/09/19 00:10:22;;;;;;;4.00;0.90;;;;;;;17.81;44.80;94077.00;4962371;28;20023;-89
2022/09/19 00:12:48;;;;;;;6.93;0.98;;;;;;;17.89;45.00;94076.16;4962673;28;20409;-89
2022/09/19 00:15:13;;;;;;;2.05;0.68;;;;;;;18.01;45.75;94080.00;4962362;28;20027;-90
2022/09/19 00:17:39;;;;;;;5.07;0.85;;;;;;;17.94;46.72;94083.16;4962107;28;20340;-89
2022/09/19 00:20:06;;;;;;;2.58;0.80;;;;;;;18.03;46.97;94075.97;4962235;28;20022;-88
2022/09/19 00:22:32;;;;;;;1.55;0.70;;;;;;;17.99;48.25;94075.00;4978121;28;20022;-90
2022/09/19 00:24:58;;;;;;;7.75;0.90;;;;;;;18.42;47.30;94073.19;4962004;28;20033;-89
2022/09/19 00:27:25;;;;;;;1.45;0.70;;;;;;;18.20;48.68;94080.34;4978122;28;20448;-89
2022/09/19 00:29:52;;;;;;;7.22;1.08;;;;;;;18.09;49.50;94071.25;4962177;28;20033;-89
2022/09/19 00:32:19;;;;;;;4.20;1.52;;;;;;;18.56;48.91;94077.47;4977967;28;20110;-89
2022/09/19 00:34:47;;;;;;;3.35;0.93;;;;;;;18.17;50.69;94070.41;4979025;28;20029;-89
2022/09/19 00:37:14;;;;;;;3.70;0.70;;;;;;;18.10;50.78;94064.84;4962211;28;20030;-91
2022/09/19 00:39:40;;;;;;;5.10;0.77;;;;;;;17.88;51.94;94064.00;4959236;28;20030;-90
2022/09/19 00:42:14;;;;;;;2.45;0.95;;;;;;;18.17;52.27;94074.94;4961495;28;20644;-91
2022/09/19 00:44:39;;;;;;;5.60;1.58;;;;;;;18.19;52.39;94064.78;4961242;28;20030;-91
2022/09/19 00:47:09;;;;;;;3.45;0.90;;;;;;;18.11;53.46;94061.09;4977573;28;20037;-91
2022/09/19 00:49:38;;;;;;;1.88;0.60;;;;;;;18.36;53.70;94063.88;4944655;28;20121;-90
2022/09/19 00:52:07;;;;;;;8.98;0.95;;;;;;;18.32;54.51;94062.97;4960536;28;20035;-91
2022/09/19 00:54:40;;;;;;;3.40;1.20;;;;;;;18.03;56.86;94059.28;4944401;28;20040;-90
2022/09/19 00:57:07;;;;;;;6.87;0.83;;;;;;;18.42;55.99;94054.63;4960628;28;20033;-90
2022/09/19 00:59:35;;;;;;;5.60;0.88;;;;;;;18.35;58.65;94043.75;4960902;28;20261;-90
2022/09/19 01:02:04;;;;;;;4.70;1.15;;;;;;;18.48;58.49;94045.34;4960565;28;20085;-90
2022/09/19 01:04:35;;;;;;;5.15;1.10;;;;;;;18.07;62.60;94041.63;4960541;28;20030;-90
2022/09/19 01:07:23;;;;;;;5.22;1.00;;;;;;;18.48;61.30;94034.75;4961157;28;20046;-90
2022/09/19 01:10:19;;;;;;;2.72;0.95;;;;;;;17.94;64.64;94032.78;4944973;28;20027;-90
2022/09/19 01:12:51;;;;;;;5.13;1.23;;;;;;;18.32;63.80;94036.44;4960633;28;20026;-92
2022/09/19 01:15:42;;;;;;;3.42;1.20;;;;;;;18.41;63.68;94037.16;4960674;28;20030;-91
2022/09/19 01:18:08;;;;;;;5.72;1.13;;;;;;;18.36;63.73;94034.69;4977558;28;20161;-91
2022/09/19 01:21:37;;;;;;;8.27;0.95;;;;;;;18.21;64.82;94036.06;4960074;28;20027;-91
2022/09/19 01:24:08;;;;;;;7.10;1.10;;;;;;;18.26;65.39;94027.91;4962709;28;20173;-91
2022/09/19 01:26:49;;;;;;;5.55;0.77;;;;;;;18.35;65.66;94033.16;4959662;28;20093;-90
2022/09/19 01:29:24;;;;;;;4.35;0.70;;;;;;;18.47;63.81;94027.91;4977236;28;20038;-90
2022/09/19 01:31:54;;;;;;;2.75;1.08;;;;;;;18.60;62.67;94033.25;4977207;28;20169;-92
2022/09/19 01:34:26;;;;;;;7.95;0.90;;;;;;;18.39;64.59;94034.06;4944243;28;20022;-90
2022/09/19 01:37:09;;;;;;;3.10;1.08;;;;;;;18.32;66.75;94029.28;4960137;28;20026;-90
2022/09/19 01:39:37;;;;;;;4.03;1.10;;;;;;;18.46;66.85;94029.00;4959961;28;20103;-90
2022/09/19 01:42:03;;;;;;;5.38;1.00;;;;;;;18.32;66.85;94023.19;4960079;28;20027;-91
2022/09/19 01:44:30;;;;;;;8.15;0.98;;;;;;;18.55;65.89;94020.19;4960188;28;20448;-93
2022/09/19 01:46:55;;;;;;;3.72;0.88;;;;;;;18.64;64.95;94019.00;4920655;28;1173329;-90
2022/09/19 01:49:28;;;;;;;7.80;1.33;;;;;;;18.74;64.66;94017.81;4960788;28;20069;-90
2022/09/19 01:52:02;;;;;;;3.15;0.80;;;;;;;18.80;64.98;94013.09;4977952;28;20038;-91
2022/09/19 01:54:34;;;;;;;5.68;0.90;;;;;;;18.77;64.52;94011.09;4944765;28;20077;-91
2022/09/19 01:57:21;;;;;;;1.57;0.80;;;;;;;18.78;65.74;94013.41;4977823;28;20081;-91
2022/09/19 02:00:14;;;;;;;3.53;1.00;;;;;;;18.79;66.00;94011.53;4960659;28;20045;-91
2022/09/19 02:02:54;;;;;;;5.57;1.20;;;;;;;18.59;67.79;94015.78;4960408;28;20027;-90
2022/09/19 02:05:41;;;;;;;8.00;1.23;;;;;;;18.70;67.44;94001.00;4945005;28;20027;-93
2022/09/19 02:08:28;;;;;;;8.45;1.17;;;;;;;18.73;67.79;94008.31;4963363;28;20041;-90
2022/09/19 02:11:00;;;;;;;2.90;0.70;;;;;;;18.72;67.92;94004.09;4948363;28;20040;-91
2022/09/19 02:13:27;;;;;;;13.35;1.38;;;;;;;18.36;71.64;94002.88;4964276;28;20416;-91
2022/09/19 02:15:59;;;;;;;3.50;0.90;;;;;;;18.38;72.16;93995.38;4948229;28;20042;-92
2022/09/19 02:18:31;;;;;;;4.63;1.25;;;;;;;18.15;74.29;94000.25;4964836;28;20062;-92
2022/09/19 02:21:05;;;;;;;2.55;1.02;;;;;;;18.28;73.18;93993.13;4964406;28;20121;-91
2022/09/19 02:23:33;;;;;;;6.40;1.10;;;;;;;18.39;72.90;93991.63;4948306;28;20081;-92
2022/09/19 02:26:02;;;;;;;5.63;1.02;;;;;;;18.18;76.43;93989.75;4964432;28;20345;-92
2022/09/19 02:28:41;;;;;;;6.70;1.13;;;;;;;18.14;76.21;93988.09;4964727;28;20061;-91
2022/09/19 02:31:07;;;;;;;5.15;1.10;;;;;;;18.35;73.69;93985.41;4964250;28;20034;-92
2022/09/19 02:33:34;;;;;;;4.15;0.90;;;;;;;18.26;74.16;93987.38;4964021;28;20429;-92
2022/09/19 02:36:32;;;;;;;2.83;1.00;;;;;;;17.99;76.82;93978.81;4964315;28;20503;-91
2022/09/19 02:38:58;;;;;;;5.15;1.13;;;;;;;18.17;75.54;93982.91;4963953;28;20038;-91
2022/09/19 02:41:53;;;;;;;1.65;0.90;;;;;;;18.08;75.27;93982.97;4964265;28;20035;-91
2022/09/19 02:44:36;;;;;;;2.97;1.10;;;;;;;18.48;70.34;93979.06;4944320;28;20129;-91
2022/09/19 02:47:27;;;;;;;6.38;1.30;;;;;;;18.46;71.40;93975.19;4963727;28;20117;-91
2022/09/19 02:49:59;;;;;;;2.65;0.95;;;;;;;18.39;70.35;93964.31;4947698;28;20026;-90
2022/09/19 02:52:29;;;;;;;6.80;1.30;;;;;;;18.28;72.00;93962.06;4963707;28;20035;-90
2022/09/19 02:55:02;;;;;;;3.13;1.10;;;;;;;18.36;70.15;93960.44;4963457;28;20029;-89
2022/09/19 02:57:29;;;;;;;3.42;1.30;;;;;;;18.51;69.39;93954.53;4948180;28;20034;-90
2022/09/19 02:59:58;;;;;;;5.82;1.00;;;;;;;18.46;69.94;93967.25;4963491;28;20061;-90
2022/09/19 03:02:27;;;;;;;10.13;1.13;;;;;;;18.54;66.97;93953.09;4963529;28;20031;-90
2022/09/19 03:05:15;;;;;;;2.10;0.70;;;;;;;18.55;66.98;93959.19;4960004;29;20460;-91
2022/09/19 03:07:44;;;;;;;7.30;1.33;;;;;;;18.54;65.47;93958.41;4944020;29;20027;-91
2022/09/19 03:10:26;;;;;;;6.95;0.93;;;;;;;18.83;64.16;93948.72;4960985;28;20065;-90
2022/09/19 03:12:54;;;;;;;7.60;1.42;;;;;;;18.59;64.47;93955.56;4962907;28;20440;-91
2022/09/19 03:15:53;;;;;;;8.32;1.60;;;;;;;18.64;64.82;93952.69;4963373;28;20033;-91
2022/09/19 03:18:21;;;;;;;2.10;1.10;;;;;;;18.77;64.93;93958.03;4962843;28;20433;-90
2022/09/19 03:20:49;;;;;;;3.58;1.08;;;;;;;18.46;66.73;93954.72;4963013;28;20127;-91
2022/09/19 03:23:18;;;;;;;3.28;0.90;;;;;;;18.43;66.40;93952.75;4947265;28;20026;-90
2022/09/19 03:25:44;;;;;;;4.60;1.40;;;;;;;18.39;65.78;93954.50;4980115;28;20458;-90
2022/09/19 03:28:09;;;;;;;9.52;1.40;;;;;;;18.65;64.58;93948.94;4962941;28;20103;-91
2022/09/19 03:30:35;;;;;;;4.45;1.33;;;;;;;18.36;65.84;93950.63;4962450;28;20034;-90
2022/09/19 03:33:00;;;;;;;4.88;1.30;;;;;;;18.50;64.59;93952.22;4947031;28;20019;-90
2022/09/19 03:35:26;;;;;;;2.97;1.10;;;;;;;18.71;63.55;93954.81;4946917;28;20164;-90
2022/09/19 03:37:51;;;;;;;5.85;1.40;;;;;;;18.60;63.95;93948.34;4946864;28;20029;-91
2022/09/19 03:40:17;;;;;;;2.88;1.00;;;;;;;18.25;68.07;93959.31;4946828;28;20033;-91
2022/09/19 03:42:45;;;;;;;4.72;1.00;;;;;;;18.21;67.44;93959.94;4962605;28;20027;-91
2022/09/19 03:45:11;;;;;;;4.45;1.20;;;;;;;17.92;70.71;93950.19;4963048;28;20022;-91
2022/09/19 03:47:37;;;;;;;5.15;1.35;;;;;;;18.01;71.02;93947.47;4947031;28;20081;-89
2022/09/19 03:50:03;;;;;;;8.30;1.30;;;;;;;18.46;68.38;93940.72;4979823;28;20026;-90
2022/09/19 03:52:29;;;;;;;5.88;1.67;;;;;;;17.56;75.94;93940.94;4946872;28;20026;-91
2022/09/19 03:54:56;;;;;;;4.25;1.02;;;;;;;18.15;69.93;93945.34;4962425;28;20019;-90
2022/09/19 03:57:21;;;;;;;5.63;1.40;;;;;;;18.32;68.53;93944.44;4946713;28;20054;-89
2022/09/19 03:59:47;;;;;;;12.30;1.38;;;;;;;18.13;70.12;93944.91;4946918;28;20030;-90
2022/09/19 04:02:12;;;;;;;5.55;1.00;;;;;;;18.15;71.67;93945.34;4946495;28;20086;-90
2022/09/19 04:04:38;;;;;;;4.63;1.35;;;;;;;18.01;71.72;93937.66;4962185;28;20033;-92
2022/09/19 04:07:04;;;;;;;4.35;1.30;;;;;;;18.22;69.13;93934.22;4962232;28;20027;-89
2022/09/19 04:09:30;;;;;;;5.07;1.50;;;;;;;18.27;68.07;93938.56;4962633;28;20023;-91
2022/09/19 04:11:56;;;;;;;4.97;1.10;;;;;;;18.05;70.00;93938.56;4962092;28;20052;-89
2022/09/19 04:14:22;;;;;;;5.28;0.93;;;;;;;18.31;68.98;93942.09;4946489;28;20381;-90
2022/09/19 04:17:07;;;;;;;6.63;1.17;;;;;;;18.24;69.29;93934.66;4945627;28;20027;-91
2022/09/19 04:19:32;;;;;;;4.20;1.20;;;;;;;18.23;68.29;93938.41;4942938;29;20027;-90
2022/09/19 04:21:59;;;;;;;5.50;1.60;;;;;;;18.18;68.47;93936.75;4959073;29;20496;-90
2022/09/19 04:24:25;;;;;;;5.47;1.00;;;;;;;18.02;70.32;93938.41;4958503;29;20094;-89
2022/09/19 04:26:51;;;;;;;7.40;1.23;;;;;;;18.12;69.74;93946.00;4958759;29;20227;-89
2022/09/19 04:29:18;;;;;;;4.05;1.10;;;;;;;18.30;68.08;93938.69;4957979;28;20031;-89
2022/09/19 04:31:44;;;;;;;3.47;1.60;;;;;;;18.40;67.59;93945.44;4943007;29;20038;-90
2022/09/19 04:34:14;;;;;;;9.32;1.42;;;;;;;18.06;70.65;93942.78;4942657;29;20027;-90
2022/09/19 04:36:40;;;;;;;6.50;1.30;;;;;;;18.36;68.08;93944.53;4943022;29;20031;-90
2022/09/19 04:39:06;;;;;;;2.53;1.23;;;;;;;18.46;67.14;93944.13;4942569;29;20122;-90
2022/09/19 04:41:35;;;;;;;2.92;1.00;;;;;;;18.53;66.68;93948.91;4942486;29;20031;-89
2022/09/19 04:44:03;;;;;;;5.97;1.20;;;;;;;18.39;67.52;93943.91;4926856;29;20031;-90
2022/09/19 04:46:29;;;;;;;6.00;1.35;;;;;;;17.35;79.40;93947.75;4945880;28;20093;-91
2022/09/19 04:48:55;;;;;;;8.10;1.50;;;;;;;17.47;78.71;93941.78;4945353;28;20125;-89
2022/09/19 04:51:21;;;;;;;6.10;1.55;;;;;;;17.57;76.51;93943.25;4945975;28;20031;-91
2022/09/19 04:53:47;;;;;;;4.65;1.15;;;;;;;17.61;76.40;93944.16;4945417;28;20030;-91
2022/09/19 04:56:12;;;;;;;4.25;1.30;;;;;;;18.10;73.93;93948.22;4961325;28;20023;-90
2022/09/19 04:58:40;;;;;;;5.13;1.55;;;;;;;18.20;72.24;93953.09;4961373;28;20022;-90
2022/09/19 05:01:06;;;;;;;7.38;1.17;;;;;;;17.72;75.57;93944.59;4958673;28;20023;-90
2022/09/19 05:03:31;;;;;;;10.63;1.90;;;;;;;17.93;74.69;93952.53;4942096;29;20023;-90
2022/09/19 05:05:58;;;;;;;6.20;1.33;;;;;;;18.11;72.88;93955.06;4941934;29;20035;-89
2022/09/19 05:08:27;;;;;;;3.38;0.95;;;;;;;17.88;75.23;93958.00;4958141;29;20058;-90
2022/09/19 05:10:58;;;;;;;7.05;1.20;;;;;;;18.04;74.97;93968.03;4973876;28;20057;-89
2022/09/19 05:13:26;;;;;;;5.65;1.52;;;;;;;17.89;76.04;93961.44;4942228;29;20034;-89
2022/09/19 05:15:52;;;;;;;8.18;1.55;;;;;;;18.02;75.42;93967.56;4942374;29;20086;-92
2022/09/19 05:18:21;;;;;;;7.20;1.45;;;;;;;18.13;74.83;93965.31;4973783;28;20027;-90
2022/09/19 05:20:48;;;;;;;7.57;1.20;;;;;;;18.17;74.99;93969.66;4973557;28;20441;-90
2022/09/19 05:23:13;;;;;;;5.78;1.23;;;;;;;18.16;73.53;93965.47;4942387;29;20035;-90
2022/09/19 05:25:39;;;;;;;8.07;1.10;;;;;;;18.17;75.89;93969.66;4973560;28;20078;-89
2022/09/19 05:28:06;;;;;;;10.82;1.20;;;;;;;18.08;76.87;93976.94;4945319;28;20340;-89
2022/09/19 05:30:37;;;;;;;4.68;1.40;;;;;;;17.98;78.57;93977.28;4960724;28;20029;-89
2022/09/19 05:33:03;;;;;;;3.58;1.38;;;;;;;18.20;79.27;93987.56;4974472;28;20336;-91
2022/09/19 05:35:30;;;;;;;6.93;1.02;;;;;;;18.08;78.82;93982.22;4976789;28;20034;-89
2022/09/19 05:37:57;;;;;;;7.28;1.40;;;;;;;18.23;77.61;93986.94;4961141;28;20030;-91
2022/09/19 05:40:23;;;;;;;5.15;1.25;;;;;;;18.19;79.51;93988.66;4976466;28;20029;-90
2022/09/19 05:42:50;;;;;;;5.70;1.08;;;;;;;18.53;74.18;93985.28;4960997;28;20437;-89
2022/09/19 05:45:16;;;;;;;10.70;1.50;;;;;;;18.25;76.79;93991.13;4961539;28;20026;-90
2022/09/19 05:47:44;;;;;;;9.32;1.52;;;;;;;18.43;75.42;93991.75;4980109;28;20164;-88
2022/09/19 05:50:11;;;;;;;8.15;1.58;;;;;;;18.51;74.54;93990.88;4964153;28;20022;-89
2022/09/19 05:55:22;;;;;;;9.60;1.67;;;;;;;19.00;70.61;93992.13;4982483;28;20030;-89
2022/09/19 05:57:56;;;;;;;7.25;1.55;;;;;;;18.91;73.25;93994.84;4980083;28;20023;-89
2022/09/19 06:00:23;;;;;;;4.85;1.17;;;;;;;18.75;73.44;94003.44;4964290;28;20336;-89
2022/09/19 06:03:09;;;;;;;8.80;1.50;;;;;;;18.99;71.76;94002.00;4979882;28;20157;-89
2022/09/19 06:05:40;;;;;;;9.40;1.50;;;;;;;18.95;72.64;94006.38;4941730;29;20027;-90
2022/09/19 06:08:07;;;;;;;3.13;1.30;;;;;;;18.69;73.14;94009.28;4941469;29;20397;-89
2022/09/19 06:10:34;;;;;;;5.05;1.13;;;;;;;18.78;73.48;94007.34;4941566;29;20046;-90
2022/09/19 06:13:00;;;;;;;3.63;1.20;;;;;;;18.64;74.86;94007.63;4970997;28;20076;-90
2022/09/19 06:15:25;;;;;;;7.05;1.10;;;;;;;18.93;72.38;94019.19;4964680;28;20117;-90
2022/09/19 06:17:55;;;;;;;5.85;1.30;;;;;;;19.37;71.54;94010.75;4960349;28;20117;-91
2022/09/19 06:20:20;;;;;;;2.15;0.90;;;;;;;19.57;68.31;94006.44;4944506;28;20050;-90
2022/09/19 06:22:46;;;;;;;8.07;1.10;;;;;;;19.31;71.93;94022.72;4944412;28;20027;-89
2022/09/19 06:25:14;;;;;;;4.95;1.70;;;;;;;19.84;67.15;94014.84;4977737;28;20023;-91
2022/09/19 06:27:42;;;;;;;7.30;1.55;;;;;;;19.88;65.99;94012.28;4977745;28;20033;-91
2022/09/19 06:30:08;;;;;;;12.30;1.10;;;;;;;19.80;66.84;94026.47;4977342;28;20132;-91
2022/09/19 06:32:33;;;;;;;11.20;1.77;;;;;;;20.01;66.95;94026.34;4977372;28;20344;-91
2022/09/19 06:34:59;;;;;;;10.10;1.27;;;;;;;19.95;68.26;94030.38;4960219;28;20022;-90
2022/09/19 06:37:31;;;;;;;4.38;1.50;;;;;;;20.37;63.78;94035.38;4977390;28;20022;-90
2022/09/19 06:39:56;;;;;;;3.83;1.48;;;;;;;20.12;65.41;94026.66;4960229;28;20030;-90
2022/09/19 06:42:22;;;;;;;6.32;1.30;;;;;;;20.08;66.71;94029.19;4960168;28;20325;-91
2022/09/19 06:44:49;;;;;;;10.18;1.60;;;;;;;20.75;64.88;94031.41;4960043;28;20110;-90
2022/09/19 06:47:17;;;;;;;4.18;1.13;;;;;;;20.88;64.67;94039.38;4960371;28;20330;-91
2022/09/19 06:49:43;;;;;;;6.07;1.20;;;;;;;20.77;67.26;94033.75;4977266;28;20438;-92
2022/09/19 06:52:08;;;;;;;10.77;1.55;;;;;;;20.83;77.88;94034.31;4960381;28;20106;-91
2022/09/19 06:54:34;;;;;;;4.60;1.17;;;;;;;20.77;78.12;94039.84;4980771;28;20117;-91
2022/09/19 06:57:00;;;;;;;7.65;1.30;;;;;;;20.93;76.69;94054.34;4963667;28;20035;-91
2022/09/19 06:59:25;;;;;;;7.97;1.10;;;;;;;20.47;77.24;94050.81;4980571;28;20033;-90
2022/09/19 07:01:51;;;;;;;6.28;1.00;;;;;;;20.93;70.33;94057.75;4947615;28;20031;-92
2022/09/19 07:04:16;;;;;;;4.70;1.42;;;;;;;20.66;78.12;94060.09;4963283;28;20030;-91
2022/09/19 07:06:42;;;;;;;3.10;1.13;;;;;;;20.99;76.06;94064.41;4963403;28;20074;-90
2022/09/19 07:09:07;;;;;;;7.10;1.38;;;;;;;21.02;76.62;94055.72;4947989;28;20030;-91
2022/09/19 07:11:35;;;;;;;6.18;1.25;;;;;;;21.21;78.36;94059.59;4963418;28;20376;-90
2022/09/19 07:14:04;;;;;;;6.35;1.52;;;;;;;20.84;96.74;94062.47;4963759;28;20030;-92
2022/09/19 07:16:33;;;;;;;7.20;1.48;;;;;;;20.88;83.56;94066.00;4947015;28;20037;-91
2022/09/19 07:18:58;;;;;;;5.45;1.20;;;;;;;20.76;81.49;94064.91;4963106;28;20081;-92
2022/09/19 07:21:24;;;;;;;8.80;1.40;;;;;;;20.79;80.10;94065.34;4963107;28;20038;-91
2022/09/19 07:23:50;;;;;;;7.45;1.95;;;;;;;21.10;74.72;94074.56;4947111;28;20444;-90
2022/09/19 07:26:16;;;;;;;4.22;1.33;;;;;;;21.21;75.91;94075.59;4963409;28;20464;-91
2022/09/19 07:28:41;;;;;;;3.58;1.05;;;;;;;21.05;79.82;94068.34;4963361;28;20035;-91
2022/09/19 07:31:06;;;;;;;3.30;1.15;;;;;;;21.69;83.87;94080.22;4963124;28;20117;-91
2022/09/19 07:33:32;;;;;;;6.90;1.75;;;;;;;21.59;80.61;94084.91;4962793;28;20038;-91
2022/09/19 07:35:59;;;;;;;4.80;1.33;;;;;;;21.63;75.13;94093.00;4962809;28;20030;-92
2022/09/19 07:38:27;;;;;;;2.17;1.08;;;;;;;21.65;74.24;94095.28;4980029;28;20038;-92
2022/09/19 07:40:53;;;;;;;6.13;1.33;;;;;;;21.40;75.39;94098.16;4962866;28;20117;-91
2022/09/19 07:43:18;;;;;;;6.40;1.27;;;;;;;21.55;72.08;94094.72;4962670;28;20031;-92
2022/09/19 07:45:49;;;;;;;6.57;1.10;;;;;;;21.83;71.65;94107.19;4979713;28;20045;-91
2022/09/19 07:48:15;;;;;;;3.58;0.93;;;;;;;21.70;78.65;94111.84;4962901;28;20031;-91
2022/09/19 07:50:42;;;;;;;4.07;1.08;;;;;;;22.00;72.16;94106.03;4962510;28;20042;-91
2022/09/19 07:53:11;;;;;;;6.07;1.52;;;;;;;21.30;77.03;94115.38;4946695;28;20033;-92
2022/09/19 07:55:37;;;;;;;7.03;1.20;;;;;;;21.76;72.72;94120.34;4946651;28;20356;-91
2022/09/19 07:58:03;;;;;;;2.08;0.85;;;;;;;21.57;76.50;94124.47;4962275;28;20034;-91
2022/09/19 08:00:30;;;;;;;8.38;1.10;;;;;;;21.70;75.72;94127.06;4962251;28;20353;-90
2022/09/19 08:02:57;;;;;;;2.55;1.05;;;;;;;21.66;73.53;94128.84;4946411;28;20038;-90
2022/09/19 08:05:23;;;;;;;13.25;1.20;;;;;;;21.06;77.08;94130.41;4946383;28;20058;-90
2022/09/19 08:07:49;;;;;;;4.30;1.00;;;;;;;21.50;71.03;94132.25;4962271;28;20141;-90
2022/09/19 08:10:15;;;;;;;7.60;1.33;;;;;;;21.74;70.18;94133.25;4962364;28;20118;-92
2022/09/19 08:12:44;;;;;;;6.05;0.98;;;;;;;21.39;78.45;94136.56;4962061;28;20066;-90
2022/09/19 08:15:17;;;;;;;6.35;1.13;;;;;;;21.84;74.73;94132.75;4962335;28;20411;-91
2022/09/19 08:18:00;;;;;;;6.13;1.02;;;;;;;22.29;71.46;94138.69;4946662;28;20089;-92
2022/09/19 08:20:26;;;;;;;3.85;1.00;;;;;;;21.67;79.55;94141.09;4946245;28;20031;-92
2022/09/19 08:23:06;;;;;;;2.40;1.05;;;;;;;22.22;73.78;94145.78;4961768;28;20444;-91
2022/09/19 08:25:33;;;;;;;5.30;1.27;;;;;;;22.34;72.20;94155.56;4946310;28;20093;-91
2022/09/19 08:27:59;;;;;;;7.63;1.10;;;;;;;22.21;83.26;94154.91;4945931;28;20027;-90
2022/09/19 08:30:27;;;;;;;5.07;1.00;;;;;;;22.30;83.08;94150.16;4945794;28;20400;-91
2022/09/19 08:32:53;;;;;;;5.88;1.05;;;;;;;22.23;75.03;94155.31;4946132;28;20026;-92
2022/09/19 08:35:20;;;;;;;4.82;1.10;;;;;;;22.49;78.01;94157.47;4945977;28;20165;-92
2022/09/19 08:37:46;;;;;;;3.72;1.10;;;;;;;22.25;73.82;94163.78;4945908;28;20113;-91
2022/09/19 08:40:26;;;;;;;4.25;1.10;;;;;;;22.73;68.91;94150.31;4945751;28;20054;-92
2022/09/19 08:43:07;;;;;;;3.95;1.15;;;;;;;22.84;74.61;94151.31;4961613;28;20093;-91
2022/09/19 08:45:51;;;;;;;6.80;1.10;;;;;;;22.62;71.34;94158.09;4978639;28;20842;-91
2022/09/19 08:48:23;;;;;;;5.07;0.98;;;;;;;22.68;68.66;94161.28;4977688;28;20435;-91
2022/09/19 08:51:06;;;;;;;2.50;0.90;;;;;;;23.06;68.20;94159.75;4945748;28;20042;-91
2022/09/19 08:53:34;;;;;;;2.95;1.10;;;;;;;23.01;66.67;94154.69;4961857;28;20420;-92
2022/09/19 08:56:00;;;;;;;2.13;0.80;;;;;;;23.06;71.83;94169.66;4945769;28;20069;-91
2022/09/19 08:58:27;;;;;;;7.10;1.30;;;;;;;22.95;70.38;94166.78;4945507;28;20437;-91
2022/09/19 09:00:54;;;;;;;4.28;1.10;;;;;;;22.08;66.43;94168.34;4945334;28;20556;-92
2022/09/19 09:03:29;;;;;;;6.63;1.02;;;;;;;22.97;64.51;94168.00;4961108;28;20459;-91
2022/09/19 09:05:59;;;;;;;3.42;1.02;;;;;;;23.04;68.24;94169.25;4961213;28;20039;-91
2022/09/19 09:08:52;;;;;;;4.00;0.98;;;;;;;23.12;67.06;94173.63;4961151;28;20037;-90
2022/09/19 09:11:23;;;;;;;6.82;1.10;;;;;;;23.32;64.54;94176.28;4961246;28;20031;-91
2022/09/19 09:14:14;;;;;;;5.50;1.40;;;;;;;23.10;65.49;94170.53;4978296;28;20022;-93
2022/09/19 09:17:20;;;;;;;6.30;1.30;;;;;;;23.58;66.84;94181.75;4960655;28;20031;-91
2022/09/19 09:20:16;;;;;;;5.63;1.25;;;;;;;23.48;64.25;94174.28;4978163;28;20034;-90
2022/09/19 09:22:47;;;;;;;4.57;1.20;;;;;;;23.62;69.82;94184.47;4961095;28;20393;-91
2022/09/19 09:25:29;;;;;;;1.73;1.02;;;;;;;23.98;63.94;94177.03;4960960;28;20039;-91
2022/09/19 09:28:18;;;;;;;4.05;1.40;;;;;;;23.85;61.63;94184.50;4946006;28;20329;-91
2022/09/19 09:30:48;;;;;;;5.55;1.52;;;;;;;23.56;61.39;94194.69;4960766;28;20031;-91
2022/09/19 09:33:23;;;;;;;3.92;1.15;;;;;;;24.17;61.38;94185.38;4960736;28;20097;-91
2022/09/19 09:36:15;;;;;;;7.53;1.30;;;;;;;24.74;61.43;94185.41;4945027;28;20081;-91
2022/09/19 09:38:51;;;;;;;6.90;1.20;;;;;;;24.64;63.80;94186.81;4961037;28;20113;-91
2022/09/19 09:41:47;;;;;;;12.40;1.50;;;;;;;24.98;57.15;94186.94;4961405;28;20603;-92
2022/09/19 09:44:13;;;;;;;8.70;1.20;;;;;;;24.66;59.01;94187.22;4960783;28;20043;-91
2022/09/19 09:46:50;;;;;;;7.20;1.23;;;;;;;24.23;56.62;94186.63;4960869;28;20038;-92
2022/09/19 09:49:18;;;;;;;4.53;1.20;;;;;;;24.28;56.13;94189.00;4960629;28;20353;-91
2022/09/19 09:52:05;;;;;;;5.38;1.50;;;;;;;24.63;60.20;94184.53;4960812;28;20030;-91
2022/09/19 09:57:36;;;;;;;6.18;1.30;;;;;;;24.97;56.82;94190.75;4977856;28;20077;-92
2022/09/19 10:06:06;;;;;;;4.43;1.35;;;;;;;25.17;52.98;94190.59;4977747;28;20046;-91
2022/09/19 10:08:39;;;;;;;3.17;1.20;;;;;;;25.04;62.37;94195.41;4944979;28;20031;-91
2022/09/19 10:11:17;;;;;;;6.90;1.30;;;;;;;24.47;67.31;94195.38;4944908;28;20074;-90
2022/09/19 10:13:58;;;;;;;6.05;1.50;;;;;;;23.97;56.11;94193.47;4944755;28;20768;-91
2022/09/19 10:16:23;;;;;;;6.95;1.27;;;;;;;23.78;57.03;94196.97;4946031;28;20034;-91
2022/09/19 10:18:53;;;;;;;5.10;1.55;;;;;;;23.45;61.52;94199.06;4960055;28;20503;-90
2022/09/19 10:21:18;;;;;;;4.00;1.30;;;;;;;23.15;59.61;94197.72;4960594;28;20069;-93
2022/09/19 10:23:45;;;;;;;7.47;1.60;;;;;;;23.50;54.70;94206.78;4944782;28;20066;-91
2022/09/19 10:26:19;;;;;;;4.55;1.20;;;;;;;24.17;53.00;94210.22;4944845;28;20034;-91
2022/09/19 10:28:56;;;;;;;5.50;1.45;;;;;;;24.37;56.49;94205.56;4947468;28;20421;-91
2022/09/19 10:31:38;;;;;;;7.15;2.00;;;;;;;23.94;58.41;94196.84;4949036;28;20042;-92
2022/09/19 10:34:06;;;;;;;6.97;1.40;;;;;;;23.64;58.50;94213.53;4948310;28;20023;-92
2022/09/19 10:36:33;;;;;;;4.20;1.63;;;;;;;23.61;60.24;94206.22;4964224;28;20027;-91
2022/09/19 10:39:01;;;;;;;6.15;1.55;;;;;;;24.31;60.28;94204.34;4964105;28;20036;-93
2022/09/19 10:41:28;;;;;;;6.15;1.60;;;;;;;24.53;60.04;94212.69;4947935;28;20030;-91
2022/09/19 10:44:16;;;;;;;9.55;1.42;;;;;;;24.27;60.87;94209.63;4948054;28;20332;-92
2022/09/19 10:46:45;;;;;;;4.05;1.40;;;;;;;24.34;59.68;94203.63;4948214;28;20455;-91
2022/09/19 10:49:18;;;;;;;6.47;1.30;;;;;;;24.54;57.42;94212.34;4963681;28;20433;-93
2022/09/19 10:51:45;;;;;;;3.92;1.20;;;;;;;23.43;64.09;94212.03;4948476;28;20038;-91
2022/09/19 10:54:21;;;;;;;3.58;1.60;;;;;;;24.24;57.98;94213.03;4963552;28;20033;-91
2022/09/19 10:56:47;;;;;;;5.03;1.50;;;;;;;24.06;54.34;94217.34;4948041;28;20129;-92
2022/09/19 10:59:13;;;;;;;4.55;1.30;;;;;;;24.16;51.08;94211.38;4963648;28;20026;-92
2022/09/19 11:01:39;;;;;;;3.25;1.45;;;;;;;24.40;49.53;94214.78;4980620;28;20057;-92
2022/09/19 11:04:10;;;;;;;11.15;1.60;;;;;;;24.24;53.73;94214.94;4947659;28;20435;-94
2022/09/19 11:06:58;;;;;;;6.57;1.40;;;;;;;25.15;58.53;94211.63;4963900;28;20041;-91
2022/09/19 11:09:35;;;;;;;7.40;1.48;;;;;;;25.55;61.53;94217.44;4963526;28;20030;-92
2022/09/19 11:12:04;;;;;;;4.70;1.38;;;;;;;25.52;49.39;94215.50;4963657;28;20027;-92
2022/09/19 11:14:31;;;;;;;4.90;1.33;;;;;;;25.26;50.23;94212.53;4963531;28;20354;-93
2022/09/19 11:17:15;;;;;;;7.10;1.48;;;;;;;25.43;52.24;94218.44;4980391;28;20031;-92
2022/09/19 11:20:14;;;;;;;5.32;1.35;;;;;;;25.46;54.05;94216.94;4947517;28;20034;-90
2022/09/19 11:23:03;;;;;;;5.28;1.52;;;;;;;24.97;50.75;94222.91;4979674;28;20356;-91
2022/09/19 11:25:34;;;;;;;4.65;1.23;;;;;;;24.66;52.32;94216.69;4963551;28;20031;-92
2022/09/19 11:28:31;;;;;;;5.07;1.38;;;;;;;24.49;53.48;94222.56;4963527;28;20117;-92
2022/09/19 11:31:37;;;;;;;5.85;1.20;;;;;;;25.22;50.82;94217.06;4963575;28;20030;-92
2022/09/19 11:34:27;;;;;;;1.85;1.05;;;;;;;24.63;47.88;94217.41;4963214;28;20117;-92
2022/09/19 11:37:19;;;;;;;6.80;1.88;;;;;;;24.62;45.58;94226.59;4962919;28;20073;-92
2022/09/19 11:40:03;;;;;;;2.28;1.05;;;;;;;24.26;45.58;94218.78;4963086;28;20031;-92
2022/09/19 11:42:44;;;;;;;4.72;1.30;;;;;;;24.55;49.40;94223.81;4963451;28;20074;-93
2022/09/19 11:45:12;;;;;;;4.63;1.02;;;;;;;24.14;49.87;94214.41;4962990;28;20117;-92
2022/09/19 11:47:38;;;;;;;7.50;1.83;;;;;;;24.98;56.67;94216.41;4962848;28;20467;-92
2022/09/19 11:50:37;;;;;;;6.03;1.33;;;;;;;25.23;46.61;94217.84;4963168;28;20026;-89
2022/09/19 11:53:32;;;;;;;5.10;1.40;;;;;;;24.37;47.55;94218.94;4962571;28;20444;-90
2022/09/19 11:56:12;;;;;;;2.90;1.55;;;;;;;24.12;53.38;94216.69;4923248;28;20345;-89
2022/09/19 11:58:51;;;;;;;3.65;1.10;;;;;;;24.27;54.32;94216.91;4962085;28;20035;-90
2022/09/19 12:01:50;;;;;;;2.50;1.30;;;;;;;24.67;52.85;94218.25;4962371;28;20452;-90
2022/09/19 12:04:23;;;;;;;4.38;1.50;;;;;;;24.62;50.86;94228.50;4962251;28;20058;-89
2022/09/19 12:06:52;;;;;;;;;;;;;;;24.70;54.52;94217.53;4962757;28;20096;-90